sensor_id;sensor_type;location;lat;lon;timestamp;P1;durP1;ratioP1;P2;durP2;ratioP2
37459;SDS011;23318;50.966;5.284;2023-08-31T00:02:14;3.35;;;1.80;;
37459;SDS011;23318;50.966;5.284;2023-08-31T00:04:40;2.85;;;1.23;;
37459;SDS011;23318;50.966;5.284;2023-08-31T00:07:06;3.90;;;1.40;;
37459;SDS011;23318;50.966;5.284;2023-08-31T00:09:32;2.88;;;0.98;;
37459;SDS011;23318;50.966;5.284;2023-08-31T00:11:58;4.85;;;1.15;;
37459;SDS011;23318;50.966;5.284;2023-08-31T00:14:27;3.65;;;1.45;;
37459;SDS011;23318;50.966;5.284;2023-08-31T00:16:52;1.02;;;0.73;;
37459;SDS011;23318;50.966;5.284;2023-08-31T00:19:18;2.28;;;1.08;;
37459;SDS011;23318;50.966;5.284;2023-08-31T00:21:44;1.42;;;1.00;;
37459;SDS011;23318;50.966;5.284;2023-08-31T00:24:10;3.38;;;1.20;;
37459;SDS011;23318;50.966;5.284;2023-08-31T00:26:36;1.90;;;1.08;;
37459;SDS011;23318;50.966;5.284;2023-08-31T00:29:08;3.20;;;1.20;;
37459;SDS011;23318;50.966;5.284;2023-08-31T00:31:36;1.63;;;0.98;;
37459;SDS011;23318;50.966;5.284;2023-08-31T00:34:02;2.80;;;0.88;;
37459;SDS011;23318;50.966;5.284;2023-08-31T00:36:32;6.88;;;1.30;;
37459;SDS011;23318;50.966;5.284;2023-08-31T00:38:58;2.17;;;1.55;;
37459;SDS011;23318;50.966;5.284;2023-08-31T00:41:30;5.07;;;1.20;;
37459;SDS011;23318;50.966;5.284;2023-08-31T00:43:56;1.30;;;1.13;;
37459;SDS011;23318;50.966;5.284;2023-08-31T00:46:22;1.55;;;0.90;;
37459;SDS011;23318;50.966;5.284;2023-08-31T00:48:48;3.92;;;1.08;;
37459;SDS011;23318;50.966;5.284;2023-08-31T00:51:14;1.88;;;1.20;;
37459;SDS011;23318;50.966;5.284;2023-08-31T00:53:40;4.35;;;1.30;;
37459;SDS011;23318;50.966;5.284;2023-08-31T00:56:07;3.42;;;1.17;;
37459;SDS011;23318;50.966;5.284;2023-08-31T00:58:33;2.00;;;1.00;;
37459;SDS011;23318;50.966;5.284;2023-08-31T01:01:20;0.90;;;0.90;;
37459;SDS011;23318;50.966;5.284;2023-08-31T01:11:45;2.88;;;1.48;;
37459;SDS011;23318;50.966;5.284;2023-08-31T01:14:27;1.75;;;1.55;;
37459;SDS011;23318;50.966;5.284;2023-08-31T01:16:57;3.53;;;1.30;;
37459;SDS011;23318;50.966;5.284;2023-08-31T01:21:50;3.28;;;1.48;;
37459;SDS011;23318;50.966;5.284;2023-08-31T01:24:19;3.78;;;1.25;;
37459;SDS011;23318;50.966;5.284;2023-08-31T01:26:47;3.95;;;1.60;;
37459;SDS011;23318;50.966;5.284;2023-08-31T01:29:13;4.47;;;1.25;;
37459;SDS011;23318;50.966;5.284;2023-08-31T01:31:42;2.90;;;1.35;;
37459;SDS011;23318;50.966;5.284;2023-08-31T01:34:10;2.58;;;1.30;;
37459;SDS011;23318;50.966;5.284;2023-08-31T01:36:36;1.33;;;1.00;;
37459;SDS011;23318;50.966;5.284;2023-08-31T01:39:14;1.83;;;1.45;;
37459;SDS011;23318;50.966;5.284;2023-08-31T01:41:47;6.20;;;0.90;;
37459;SDS011;23318;50.966;5.284;2023-08-31T01:44:20;4.07;;;1.23;;
37459;SDS011;23318;50.966;5.284;2023-08-31T01:46:46;1.73;;;1.00;;
37459;SDS011;23318;50.966;5.284;2023-08-31T01:49:16;1.38;;;1.10;;
37459;SDS011;23318;50.966;5.284;2023-08-31T01:51:42;2.13;;;1.17;;
37459;SDS011;23318;50.966;5.284;2023-08-31T01:54:08;3.25;;;1.10;;
37459;SDS011;23318;50.966;5.284;2023-08-31T01:56:34;2.85;;;1.17;;
37459;SDS011;23318;50.966;5.284;2023-08-31T01:58:59;2.28;;;1.23;;
37459;SDS011;23318;50.966;5.284;2023-08-31T02:01:25;1.50;;;1.20;;
37459;SDS011;23318;50.966;5.284;2023-08-31T02:03:51;2.45;;;1.20;;
37459;SDS011;23318;50.966;5.284;2023-08-31T02:06:17;4.43;;;1.38;;
37459;SDS011;23318;50.966;5.284;2023-08-31T02:08:42;3.13;;;1.63;;
37459;SDS011;23318;50.966;5.284;2023-08-31T02:11:12;2.10;;;1.38;;
37459;SDS011;23318;50.966;5.284;2023-08-31T02:13:37;2.25;;;1.42;;
37459;SDS011;23318;50.966;5.284;2023-08-31T02:16:03;6.80;;;1.63;;
37459;SDS011;23318;50.966;5.284;2023-08-31T02:18:29;4.53;;;1.45;;
37459;SDS011;23318;50.966;5.284;2023-08-31T02:20:54;5.25;;;1.80;;
37459;SDS011;23318;50.966;5.284;2023-08-31T02:23:20;3.55;;;1.48;;
37459;SDS011;23318;50.966;5.284;2023-08-31T02:25:46;4.63;;;1.52;;
37459;SDS011;23318;50.966;5.284;2023-08-31T02:28:12;3.35;;;1.50;;
37459;SDS011;23318;50.966;5.284;2023-08-31T02:30:37;1.77;;;1.40;;
37459;SDS011;23318;50.966;5.284;2023-08-31T02:33:03;1.55;;;1.30;;
37459;SDS011;23318;50.966;5.284;2023-08-31T02:35:29;2.78;;;1.27;;
37459;SDS011;23318;50.966;5.284;2023-08-31T02:37:54;5.35;;;1.52;;
37459;SDS011;23318;50.966;5.284;2023-08-31T02:40:20;3.88;;;1.48;;
37459;SDS011;23318;50.966;5.284;2023-08-31T02:42:46;9.65;;;2.05;;
37459;SDS011;23318;50.966;5.284;2023-08-31T02:45:15;2.63;;;1.70;;
37459;SDS011;23318;50.966;5.284;2023-08-31T02:47:41;3.03;;;1.83;;
37459;SDS011;23318;50.966;5.284;2023-08-31T02:50:07;3.05;;;1.70;;
37459;SDS011;23318;50.966;5.284;2023-08-31T02:52:33;2.33;;;1.55;;
37459;SDS011;23318;50.966;5.284;2023-08-31T02:54:59;5.75;;;1.63;;
37459;SDS011;23318;50.966;5.284;2023-08-31T02:57:25;1.80;;;1.45;;
37459;SDS011;23318;50.966;5.284;2023-08-31T02:59:50;2.10;;;1.90;;
37459;SDS011;23318;50.966;5.284;2023-08-31T03:02:16;4.30;;;1.70;;
37459;SDS011;23318;50.966;5.284;2023-08-31T03:04:42;4.85;;;1.60;;
37459;SDS011;23318;50.966;5.284;2023-08-31T03:07:08;5.13;;;1.55;;
37459;SDS011;23318;50.966;5.284;2023-08-31T03:09:33;2.30;;;2.00;;
37459;SDS011;23318;50.966;5.284;2023-08-31T03:11:59;3.15;;;1.75;;
37459;SDS011;23318;50.966;5.284;2023-08-31T03:14:25;1.92;;;1.83;;
37459;SDS011;23318;50.966;5.284;2023-08-31T03:16:51;4.75;;;1.80;;
37459;SDS011;23318;50.966;5.284;2023-08-31T03:19:16;3.00;;;1.70;;
37459;SDS011;23318;50.966;5.284;2023-08-31T03:21:42;5.10;;;2.00;;
37459;SDS011;23318;50.966;5.284;2023-08-31T03:24:08;2.15;;;1.77;;
37459;SDS011;23318;50.966;5.284;2023-08-31T03:26:33;4.05;;;1.60;;
37459;SDS011;23318;50.966;5.284;2023-08-31T03:28:59;1.83;;;1.70;;
37459;SDS011;23318;50.966;5.284;2023-08-31T03:31:25;3.90;;;1.85;;
37459;SDS011;23318;50.966;5.284;2023-08-31T03:33:51;5.13;;;2.08;;
37459;SDS011;23318;50.966;5.284;2023-08-31T03:36:16;4.65;;;2.05;;
37459;SDS011;23318;50.966;5.284;2023-08-31T03:38:42;4.05;;;2.10;;
37459;SDS011;23318;50.966;5.284;2023-08-31T03:41:08;4.18;;;2.67;;
37459;SDS011;23318;50.966;5.284;2023-08-31T03:43:34;4.13;;;2.40;;
37459;SDS011;23318;50.966;5.284;2023-08-31T03:46:00;4.53;;;2.88;;
37459;SDS011;23318;50.966;5.284;2023-08-31T03:48:26;2.90;;;2.58;;
37459;SDS011;23318;50.966;5.284;2023-08-31T03:50:52;6.25;;;2.60;;
37459;SDS011;23318;50.966;5.284;2023-08-31T03:53:19;5.00;;;1.95;;
37459;SDS011;23318;50.966;5.284;2023-08-31T03:55:45;5.65;;;2.72;;
37459;SDS011;23318;50.966;5.284;2023-08-31T03:58:10;4.28;;;2.92;;
37459;SDS011;23318;50.966;5.284;2023-08-31T04:00:37;4.07;;;2.40;;
37459;SDS011;23318;50.966;5.284;2023-08-31T04:03:03;4.72;;;2.50;;
37459;SDS011;23318;50.966;5.284;2023-08-31T04:05:32;4.30;;;2.50;;
37459;SDS011;23318;50.966;5.284;2023-08-31T04:07:59;8.18;;;2.90;;
37459;SDS011;23318;50.966;5.284;2023-08-31T04:10:25;8.70;;;3.30;;
37459;SDS011;23318;50.966;5.284;2023-08-31T04:12:51;6.55;;;3.70;;
37459;SDS011;23318;50.966;5.284;2023-08-31T04:15:17;6.93;;;3.38;;
37459;SDS011;23318;50.966;5.284;2023-08-31T04:17:43;7.72;;;3.05;;
37459;SDS011;23318;50.966;5.284;2023-08-31T04:20:10;9.93;;;3.22;;
37459;SDS011;23318;50.966;5.284;2023-08-31T04:22:36;4.72;;;3.20;;
37459;SDS011;23318;50.966;5.284;2023-08-31T04:25:02;4.90;;;3.33;;
37459;SDS011;23318;50.966;5.284;2023-08-31T04:27:28;5.80;;;3.58;;
37459;SDS011;23318;50.966;5.284;2023-08-31T04:29:56;5.68;;;3.05;;
37459;SDS011;23318;50.966;5.284;2023-08-31T04:32:23;6.00;;;3.40;;
37459;SDS011;23318;50.966;5.284;2023-08-31T04:34:50;6.70;;;3.30;;
37459;SDS011;23318;50.966;5.284;2023-08-31T04:37:16;9.52;;;4.15;;
37459;SDS011;23318;50.966;5.284;2023-08-31T04:39:42;8.65;;;3.22;;
37459;SDS011;23318;50.966;5.284;2023-08-31T04:42:08;6.20;;;3.40;;
37459;SDS011;23318;50.966;5.284;2023-08-31T04:44:34;7.15;;;4.18;;
37459;SDS011;23318;50.966;5.284;2023-08-31T04:47:00;6.18;;;4.38;;
37459;SDS011;23318;50.966;5.284;2023-08-31T04:49:26;12.60;;;5.40;;
37459;SDS011;23318;50.966;5.284;2023-08-31T04:51:51;10.57;;;5.38;;
37459;SDS011;23318;50.966;5.284;2023-08-31T04:54:18;10.27;;;5.90;;
37459;SDS011;23318;50.966;5.284;2023-08-31T04:56:44;8.48;;;5.68;;
37459;SDS011;23318;50.966;5.284;2023-08-31T04:59:09;8.85;;;5.72;;
37459;SDS011;23318;50.966;5.284;2023-08-31T05:01:35;10.63;;;5.88;;
37459;SDS011;23318;50.966;5.284;2023-08-31T05:04:02;12.38;;;6.28;;
37459;SDS011;23318;50.966;5.284;2023-08-31T05:06:28;11.45;;;6.70;;
37459;SDS011;23318;50.966;5.284;2023-08-31T05:08:53;20.65;;;7.15;;
37459;SDS011;23318;50.966;5.284;2023-08-31T05:11:19;10.50;;;6.35;;
37459;SDS011;23318;50.966;5.284;2023-08-31T05:13:45;11.15;;;6.55;;
37459;SDS011;23318;50.966;5.284;2023-08-31T05:16:12;9.52;;;5.80;;
37459;SDS011;23318;50.966;5.284;2023-08-31T05:18:37;10.55;;;5.80;;
37459;SDS011;23318;50.966;5.284;2023-08-31T05:21:03;12.50;;;6.43;;
37459;SDS011;23318;50.966;5.284;2023-08-31T05:23:29;9.60;;;6.32;;
37459;SDS011;23318;50.966;5.284;2023-08-31T05:25:55;9.93;;;6.07;;
37459;SDS011;23318;50.966;5.284;2023-08-31T05:28:26;11.95;;;5.60;;
37459;SDS011;23318;50.966;5.284;2023-08-31T05:30:53;11.70;;;6.53;;
37459;SDS011;23318;50.966;5.284;2023-08-31T05:33:20;12.93;;;6.18;;
37459;SDS011;23318;50.966;5.284;2023-08-31T05:35:50;10.60;;;6.60;;
37459;SDS011;23318;50.966;5.284;2023-08-31T05:38:16;12.98;;;5.13;;
37459;SDS011;23318;50.966;5.284;2023-08-31T05:40:42;12.57;;;6.20;;
37459;SDS011;23318;50.966;5.284;2023-08-31T05:43:14;9.05;;;5.55;;
37459;SDS011;23318;50.966;5.284;2023-08-31T05:45:41;12.65;;;5.93;;
37459;SDS011;23318;50.966;5.284;2023-08-31T05:48:07;8.68;;;5.63;;
37459;SDS011;23318;50.966;5.284;2023-08-31T05:50:33;11.40;;;4.78;;
37459;SDS011;23318;50.966;5.284;2023-08-31T05:53:01;13.50;;;5.40;;
37459;SDS011;23318;50.966;5.284;2023-08-31T05:55:27;10.50;;;5.95;;
37459;SDS011;23318;50.966;5.284;2023-08-31T05:57:53;10.60;;;4.95;;
37459;SDS011;23318;50.966;5.284;2023-08-31T06:00:19;11.43;;;5.25;;
37459;SDS011;23318;50.966;5.284;2023-08-31T06:02:44;12.63;;;5.30;;
37459;SDS011;23318;50.966;5.284;2023-08-31T06:05:10;10.93;;;4.55;;
37459;SDS011;23318;50.966;5.284;2023-08-31T06:07:41;8.32;;;4.93;;
37459;SDS011;23318;50.966;5.284;2023-08-31T06:10:07;11.70;;;5.07;;
37459;SDS011;23318;50.966;5.284;2023-08-31T06:12:33;8.50;;;4.32;;
37459;SDS011;23318;50.966;5.284;2023-08-31T06:14:59;7.05;;;4.28;;
37459;SDS011;23318;50.966;5.284;2023-08-31T06:17:25;6.57;;;4.20;;
37459;SDS011;23318;50.966;5.284;2023-08-31T06:19:51;8.80;;;4.25;;
37459;SDS011;23318;50.966;5.284;2023-08-31T06:22:17;8.27;;;4.20;;
37459;SDS011;23318;50.966;5.284;2023-08-31T06:24:43;6.72;;;3.58;;
37459;SDS011;23318;50.966;5.284;2023-08-31T06:27:10;10.98;;;3.65;;
37459;SDS011;23318;50.966;5.284;2023-08-31T06:29:37;10.38;;;4.15;;
37459;SDS011;23318;50.966;5.284;2023-08-31T06:32:03;8.13;;;3.33;;
37459;SDS011;23318;50.966;5.284;2023-08-31T06:34:29;6.78;;;3.45;;
37459;SDS011;23318;50.966;5.284;2023-08-31T06:36:56;7.03;;;3.42;;
37459;SDS011;23318;50.966;5.284;2023-08-31T06:39:23;9.63;;;3.55;;
37459;SDS011;23318;50.966;5.284;2023-08-31T06:41:49;5.53;;;3.10;;
37459;SDS011;23318;50.966;5.284;2023-08-31T06:44:15;5.35;;;3.25;;
37459;SDS011;23318;50.966;5.284;2023-08-31T06:46:41;10.27;;;3.20;;
37459;SDS011;23318;50.966;5.284;2023-08-31T06:49:07;4.15;;;2.75;;
37459;SDS011;23318;50.966;5.284;2023-08-31T06:51:34;8.75;;;3.58;;
37459;SDS011;23318;50.966;5.284;2023-08-31T06:54:00;7.00;;;3.35;;
37459;SDS011;23318;50.966;5.284;2023-08-31T06:56:31;9.35;;;3.72;;
37459;SDS011;23318;50.966;5.284;2023-08-31T06:58:58;6.78;;;3.33;;
37459;SDS011;23318;50.966;5.284;2023-08-31T07:01:24;7.15;;;3.30;;
37459;SDS011;23318;50.966;5.284;2023-08-31T07:03:50;5.75;;;3.10;;
37459;SDS011;23318;50.966;5.284;2023-08-31T07:06:16;4.75;;;2.97;;
37459;SDS011;23318;50.966;5.284;2023-08-31T07:08:42;5.70;;;2.97;;
37459;SDS011;23318;50.966;5.284;2023-08-31T07:11:10;7.47;;;3.50;;
37459;SDS011;23318;50.966;5.284;2023-08-31T07:13:36;4.90;;;3.05;;
37459;SDS011;23318;50.966;5.284;2023-08-31T07:16:02;7.20;;;3.53;;
37459;SDS011;23318;50.966;5.284;2023-08-31T07:18:28;6.93;;;3.33;;
37459;SDS011;23318;50.966;5.284;2023-08-31T07:20:53;7.35;;;3.53;;
37459;SDS011;23318;50.966;5.284;2023-08-31T07:23:19;7.80;;;3.55;;
37459;SDS011;23318;50.966;5.284;2023-08-31T07:25:45;5.57;;;3.05;;
37459;SDS011;23318;50.966;5.284;2023-08-31T07:28:11;9.40;;;3.38;;
37459;SDS011;23318;50.966;5.284;2023-08-31T07:30:37;9.55;;;4.07;;
37459;SDS011;23318;50.966;5.284;2023-08-31T07:33:03;13.05;;;4.63;;
37459;SDS011;23318;50.966;5.284;2023-08-31T07:35:29;13.27;;;4.05;;
37459;SDS011;23318;50.966;5.284;2023-08-31T07:37:55;9.57;;;4.95;;
37459;SDS011;23318;50.966;5.284;2023-08-31T07:40:21;9.38;;;4.03;;
37459;SDS011;23318;50.966;5.284;2023-08-31T07:42:47;10.60;;;4.60;;
37459;SDS011;23318;50.966;5.284;2023-08-31T07:45:13;13.82;;;4.75;;
37459;SDS011;23318;50.966;5.284;2023-08-31T07:47:38;11.00;;;4.43;;
37459;SDS011;23318;50.966;5.284;2023-08-31T07:50:04;10.20;;;4.55;;
37459;SDS011;23318;50.966;5.284;2023-08-31T07:52:31;11.85;;;4.25;;
37459;SDS011;23318;50.966;5.284;2023-08-31T07:54:57;10.77;;;5.15;;
37459;SDS011;23318;50.966;5.284;2023-08-31T07:57:23;10.13;;;4.95;;
37459;SDS011;23318;50.966;5.284;2023-08-31T07:59:49;12.10;;;4.80;;
37459;SDS011;23318;50.966;5.284;2023-08-31T08:02:15;16.70;;;4.45;;
37459;SDS011;23318;50.966;5.284;2023-08-31T08:04:41;12.95;;;4.47;;
37459;SDS011;23318;50.966;5.284;2023-08-31T08:07:07;14.98;;;4.75;;
37459;SDS011;23318;50.966;5.284;2023-08-31T08:09:33;15.82;;;4.53;;
37459;SDS011;23318;50.966;5.284;2023-08-31T08:12:00;18.17;;;4.80;;
37459;SDS011;23318;50.966;5.284;2023-08-31T08:14:25;11.20;;;4.85;;
37459;SDS011;23318;50.966;5.284;2023-08-31T08:16:51;12.52;;;4.30;;
37459;SDS011;23318;50.966;5.284;2023-08-31T08:19:23;12.63;;;4.35;;
37459;SDS011;23318;50.966;5.284;2023-08-31T08:21:50;12.20;;;4.35;;
37459;SDS011;23318;50.966;5.284;2023-08-31T08:24:16;8.40;;;3.70;;
37459;SDS011;23318;50.966;5.284;2023-08-31T08:26:41;11.60;;;3.95;;
37459;SDS011;23318;50.966;5.284;2023-08-31T08:29:07;14.00;;;4.40;;
37459;SDS011;23318;50.966;5.284;2023-08-31T08:31:33;13.32;;;4.65;;
37459;SDS011;23318;50.966;5.284;2023-08-31T08:33:59;13.60;;;4.30;;
37459;SDS011;23318;50.966;5.284;2023-08-31T08:36:25;9.93;;;4.15;;
37459;SDS011;23318;50.966;5.284;2023-08-31T08:38:51;14.35;;;4.30;;
37459;SDS011;23318;50.966;5.284;2023-08-31T08:41:18;13.18;;;4.25;;
37459;SDS011;23318;50.966;5.284;2023-08-31T08:43:48;11.85;;;3.85;;
37459;SDS011;23318;50.966;5.284;2023-08-31T08:46:16;11.70;;;3.75;;
37459;SDS011;23318;50.966;5.284;2023-08-31T08:48:41;8.57;;;3.72;;
37459;SDS011;23318;50.966;5.284;2023-08-31T08:51:09;16.38;;;3.85;;
37459;SDS011;23318;50.966;5.284;2023-08-31T08:53:35;11.65;;;4.55;;
37459;SDS011;23318;50.966;5.284;2023-08-31T08:56:03;13.40;;;4.28;;
37459;SDS011;23318;50.966;5.284;2023-08-31T08:58:29;8.30;;;3.90;;
37459;SDS011;23318;50.966;5.284;2023-08-31T09:00:55;7.47;;;3.40;;
37459;SDS011;23318;50.966;5.284;2023-08-31T09:03:24;9.02;;;4.18;;
37459;SDS011;23318;50.966;5.284;2023-08-31T09:05:50;11.13;;;3.80;;
37459;SDS011;23318;50.966;5.284;2023-08-31T09:08:25;10.63;;;3.88;;
37459;SDS011;23318;50.966;5.284;2023-08-31T09:10:52;8.60;;;3.70;;
37459;SDS011;23318;50.966;5.284;2023-08-31T09:13:21;9.95;;;3.50;;
37459;SDS011;23318;50.966;5.284;2023-08-31T09:15:54;6.93;;;3.60;;
37459;SDS011;23318;50.966;5.284;2023-08-31T09:18:23;13.77;;;4.45;;
37459;SDS011;23318;50.966;5.284;2023-08-31T09:20:51;8.13;;;3.72;;
37459;SDS011;23318;50.966;5.284;2023-08-31T09:23:18;10.10;;;3.80;;
37459;SDS011;23318;50.966;5.284;2023-08-31T09:25:47;12.07;;;4.43;;
37459;SDS011;23318;50.966;5.284;2023-08-31T09:28:15;8.57;;;3.38;;
37459;SDS011;23318;50.966;5.284;2023-08-31T09:30:42;7.85;;;3.60;;
37459;SDS011;23318;50.966;5.284;2023-08-31T09:33:13;9.07;;;3.38;;
37459;SDS011;23318;50.966;5.284;2023-08-31T09:35:46;15.88;;;4.60;;
37459;SDS011;23318;50.966;5.284;2023-08-31T09:38:14;7.55;;;4.07;;
37459;SDS011;23318;50.966;5.284;2023-08-31T09:40:41;9.35;;;3.50;;
37459;SDS011;23318;50.966;5.284;2023-08-31T09:43:07;12.50;;;4.00;;
37459;SDS011;23318;50.966;5.284;2023-08-31T09:45:33;11.13;;;2.88;;
37459;SDS011;23318;50.966;5.284;2023-08-31T09:48:01;11.88;;;4.22;;
37459;SDS011;23318;50.966;5.284;2023-08-31T09:50:29;11.48;;;3.67;;
37459;SDS011;23318;50.966;5.284;2023-08-31T09:52:56;9.80;;;3.20;;
37459;SDS011;23318;50.966;5.284;2023-08-31T09:55:31;5.07;;;2.92;;
37459;SDS011;23318;50.966;5.284;2023-08-31T09:57:58;9.73;;;3.38;;
37459;SDS011;23318;50.966;5.284;2023-08-31T10:00:29;9.45;;;3.10;;
37459;SDS011;23318;50.966;5.284;2023-08-31T10:03:04;9.15;;;3.47;;
37459;SDS011;23318;50.966;5.284;2023-08-31T10:05:30;9.85;;;3.10;;
37459;SDS011;23318;50.966;5.284;2023-08-31T10:07:58;12.30;;;3.97;;
37459;SDS011;23318;50.966;5.284;2023-08-31T10:10:24;11.00;;;3.40;;
37459;SDS011;23318;50.966;5.284;2023-08-31T10:12:51;7.20;;;3.10;;
37459;SDS011;23318;50.966;5.284;2023-08-31T10:15:18;10.88;;;3.25;;
37459;SDS011;23318;50.966;5.284;2023-08-31T10:17:44;8.70;;;2.22;;
37459;SDS011;23318;50.966;5.284;2023-08-31T10:20:14;7.07;;;2.40;;
37459;SDS011;23318;50.966;5.284;2023-08-31T10:22:42;8.18;;;2.47;;
37459;SDS011;23318;50.966;5.284;2023-08-31T10:25:08;5.47;;;2.90;;
37459;SDS011;23318;50.966;5.284;2023-08-31T10:27:38;8.57;;;2.85;;
37459;SDS011;23318;50.966;5.284;2023-08-31T10:38:16;5.95;;;2.45;;
37459;SDS011;23318;50.966;5.284;2023-08-31T10:46:34;7.88;;;1.83;;
37459;SDS011;23318;50.966;5.284;2023-08-31T10:51:34;3.28;;;1.70;;
37459;SDS011;23318;50.966;5.284;2023-08-31T10:59:23;7.18;;;1.90;;
37459;SDS011;23318;50.966;5.284;2023-08-31T11:01:57;4.70;;;1.75;;
37459;SDS011;23318;50.966;5.284;2023-08-31T11:04:27;5.65;;;2.42;;
37459;SDS011;23318;50.966;5.284;2023-08-31T11:09:43;4.85;;;1.60;;
37459;SDS011;23318;50.966;5.284;2023-08-31T11:12:10;7.45;;;1.60;;
37459;SDS011;23318;50.966;5.284;2023-08-31T11:14:36;4.97;;;1.80;;
37459;SDS011;23318;50.966;5.284;2023-08-31T11:17:02;3.92;;;1.80;;
37459;SDS011;23318;50.966;5.284;2023-08-31T11:19:30;6.32;;;1.58;;
37459;SDS011;23318;50.966;5.284;2023-08-31T11:21:56;4.47;;;1.38;;
37459;SDS011;23318;50.966;5.284;2023-08-31T11:24:23;4.40;;;1.60;;
37459;SDS011;23318;50.966;5.284;2023-08-31T11:26:52;3.35;;;1.40;;
37459;SDS011;23318;50.966;5.284;2023-08-31T11:29:18;3.55;;;1.27;;
37459;SDS011;23318;50.966;5.284;2023-08-31T11:31:44;4.80;;;1.40;;
37459;SDS011;23318;50.966;5.284;2023-08-31T11:34:17;2.22;;;1.27;;
37459;SDS011;23318;50.966;5.284;2023-08-31T11:36:44;6.53;;;1.38;;
37459;SDS011;23318;50.966;5.284;2023-08-31T11:39:14;5.22;;;1.60;;
37459;SDS011;23318;50.966;5.284;2023-08-31T11:41:42;4.55;;;1.63;;
37459;SDS011;23318;50.966;5.284;2023-08-31T11:44:12;5.25;;;1.85;;
37459;SDS011;23318;50.966;5.284;2023-08-31T11:46:41;3.50;;;1.65;;
37459;SDS011;23318;50.966;5.284;2023-08-31T11:49:08;5.28;;;1.40;;
37459;SDS011;23318;50.966;5.284;2023-08-31T11:51:34;4.80;;;1.38;;
37459;SDS011;23318;50.966;5.284;2023-08-31T11:54:02;4.25;;;1.75;;
37459;SDS011;23318;50.966;5.284;2023-08-31T11:59:23;5.00;;;1.30;;
37459;SDS011;23318;50.966;5.284;2023-08-31T12:01:50;3.45;;;1.20;;
37459;SDS011;23318;50.966;5.284;2023-08-31T12:04:22;3.42;;;1.50;;
37459;SDS011;23318;50.966;5.284;2023-08-31T12:06:51;6.65;;;1.63;;
37459;SDS011;23318;50.966;5.284;2023-08-31T12:09:19;4.88;;;2.00;;
37459;SDS011;23318;50.966;5.284;2023-08-31T12:11:52;7.28;;;1.63;;
37459;SDS011;23318;50.966;5.284;2023-08-31T12:14:19;3.83;;;1.73;;
37459;SDS011;23318;50.966;5.284;2023-08-31T12:16:46;5.38;;;1.77;;
37459;SDS011;23318;50.966;5.284;2023-08-31T12:19:12;3.42;;;1.83;;
37459;SDS011;23318;50.966;5.284;2023-08-31T12:21:39;5.22;;;1.90;;
37459;SDS011;23318;50.966;5.284;2023-08-31T12:24:05;6.30;;;1.98;;
37459;SDS011;23318;50.966;5.284;2023-08-31T12:26:31;4.55;;;1.60;;
37459;SDS011;23318;50.966;5.284;2023-08-31T12:28:57;6.57;;;1.90;;
37459;SDS011;23318;50.966;5.284;2023-08-31T12:31:23;5.60;;;1.40;;
37459;SDS011;23318;50.966;5.284;2023-08-31T12:33:49;7.13;;;1.50;;
37459;SDS011;23318;50.966;5.284;2023-08-31T12:36:15;6.03;;;1.77;;
37459;SDS011;23318;50.966;5.284;2023-08-31T12:38:40;3.85;;;1.55;;
37459;SDS011;23318;50.966;5.284;2023-08-31T12:41:06;6.00;;;1.55;;
37459;SDS011;23318;50.966;5.284;2023-08-31T12:43:33;2.30;;;1.27;;
37459;SDS011;23318;50.966;5.284;2023-08-31T12:45:59;7.45;;;2.13;;
37459;SDS011;23318;50.966;5.284;2023-08-31T12:48:24;7.15;;;1.80;;
37459;SDS011;23318;50.966;5.284;2023-08-31T12:50:51;3.97;;;1.60;;
37459;SDS011;23318;50.966;5.284;2023-08-31T12:53:18;5.10;;;1.50;;
37459;SDS011;23318;50.966;5.284;2023-08-31T12:55:46;5.78;;;1.58;;
37459;SDS011;23318;50.966;5.284;2023-08-31T12:58:11;6.60;;;1.70;;
37459;SDS011;23318;50.966;5.284;2023-08-31T13:00:37;4.00;;;1.70;;
37459;SDS011;23318;50.966;5.284;2023-08-31T13:03:04;6.40;;;1.98;;
37459;SDS011;23318;50.966;5.284;2023-08-31T13:05:31;3.00;;;1.55;;
37459;SDS011;23318;50.966;5.284;2023-08-31T13:07:57;6.20;;;1.40;;
37459;SDS011;23318;50.966;5.284;2023-08-31T13:10:23;5.35;;;1.50;;
37459;SDS011;23318;50.966;5.284;2023-08-31T13:12:49;4.28;;;1.50;;
37459;SDS011;23318;50.966;5.284;2023-08-31T13:15:15;7.28;;;2.10;;
37459;SDS011;23318;50.966;5.284;2023-08-31T13:17:41;5.25;;;1.48;;
37459;SDS011;23318;50.966;5.284;2023-08-31T13:20:06;7.72;;;1.75;;
37459;SDS011;23318;50.966;5.284;2023-08-31T13:22:33;3.40;;;1.42;;
37459;SDS011;23318;50.966;5.284;2023-08-31T13:24:59;3.05;;;1.27;;
37459;SDS011;23318;50.966;5.284;2023-08-31T13:27:25;5.72;;;1.33;;
37459;SDS011;23318;50.966;5.284;2023-08-31T13:29:51;4.57;;;1.95;;
37459;SDS011;23318;50.966;5.284;2023-08-31T13:32:17;8.25;;;1.75;;
37459;SDS011;23318;50.966;5.284;2023-08-31T13:34:42;6.00;;;1.77;;
37459;SDS011;23318;50.966;5.284;2023-08-31T13:37:08;5.93;;;1.60;;
37459;SDS011;23318;50.966;5.284;2023-08-31T13:39:34;5.03;;;1.42;;
37459;SDS011;23318;50.966;5.284;2023-08-31T13:42:01;7.65;;;2.00;;
37459;SDS011;23318;50.966;5.284;2023-08-31T13:44:28;6.70;;;1.77;;
37459;SDS011;23318;50.966;5.284;2023-08-31T13:46:56;10.02;;;1.67;;
37459;SDS011;23318;50.966;5.284;2023-08-31T13:49:21;4.90;;;1.75;;
37459;SDS011;23318;50.966;5.284;2023-08-31T13:51:47;4.72;;;1.60;;
37459;SDS011;23318;50.966;5.284;2023-08-31T13:54:13;5.25;;;1.50;;
37459;SDS011;23318;50.966;5.284;2023-08-31T13:56:38;3.72;;;1.40;;
37459;SDS011;23318;50.966;5.284;2023-08-31T13:59:04;4.15;;;1.30;;
37459;SDS011;23318;50.966;5.284;2023-08-31T14:01:30;4.38;;;1.50;;
37459;SDS011;23318;50.966;5.284;2023-08-31T14:03:56;5.25;;;1.60;;
37459;SDS011;23318;50.966;5.284;2023-08-31T14:06:21;5.57;;;1.52;;
37459;SDS011;23318;50.966;5.284;2023-08-31T14:08:47;3.65;;;1.60;;
37459;SDS011;23318;50.966;5.284;2023-08-31T14:11:13;6.88;;;1.63;;
37459;SDS011;23318;50.966;5.284;2023-08-31T14:13:39;3.72;;;1.40;;
37459;SDS011;23318;50.966;5.284;2023-08-31T14:16:05;5.13;;;1.20;;
37459;SDS011;23318;50.966;5.284;2023-08-31T14:18:32;3.75;;;1.55;;
37459;SDS011;23318;50.966;5.284;2023-08-31T14:20:57;6.00;;;1.80;;
37459;SDS011;23318;50.966;5.284;2023-08-31T14:23:25;6.10;;;1.90;;
37459;SDS011;23318;50.966;5.284;2023-08-31T14:25:50;6.85;;;1.42;;
37459;SDS011;23318;50.966;5.284;2023-08-31T14:28:16;3.15;;;1.50;;
37459;SDS011;23318;50.966;5.284;2023-08-31T14:30:42;4.47;;;1.75;;
37459;SDS011;23318;50.966;5.284;2023-08-31T14:33:07;4.20;;;1.63;;
37459;SDS011;23318;50.966;5.284;2023-08-31T14:35:37;2.33;;;1.10;;
37459;SDS011;23318;50.966;5.284;2023-08-31T14:38:03;2.30;;;1.20;;
37459;SDS011;23318;50.966;5.284;2023-08-31T14:40:29;5.10;;;1.30;;
37459;SDS011;23318;50.966;5.284;2023-08-31T14:42:55;3.65;;;1.55;;
37459;SDS011;23318;50.966;5.284;2023-08-31T14:45:20;3.03;;;1.08;;
37459;SDS011;23318;50.966;5.284;2023-08-31T14:47:46;3.60;;;1.40;;
37459;SDS011;23318;50.966;5.284;2023-08-31T14:50:12;6.40;;;1.40;;
37459;SDS011;23318;50.966;5.284;2023-08-31T14:52:38;5.13;;;1.70;;
37459;SDS011;23318;50.966;5.284;2023-08-31T14:55:03;6.05;;;1.90;;
37459;SDS011;23318;50.966;5.284;2023-08-31T14:57:30;3.65;;;1.65;;
37459;SDS011;23318;50.966;5.284;2023-08-31T14:59:56;3.50;;;1.65;;
37459;SDS011;23318;50.966;5.284;2023-08-31T15:02:23;6.25;;;1.58;;
37459;SDS011;23318;50.966;5.284;2023-08-31T15:04:49;5.50;;;2.08;;
37459;SDS011;23318;50.966;5.284;2023-08-31T15:07:18;6.32;;;1.80;;
37459;SDS011;23318;50.966;5.284;2023-08-31T15:09:44;3.83;;;1.70;;
37459;SDS011;23318;50.966;5.284;2023-08-31T15:12:11;3.47;;;1.75;;
37459;SDS011;23318;50.966;5.284;2023-08-31T15:14:37;5.95;;;2.20;;
37459;SDS011;23318;50.966;5.284;2023-08-31T15:17:05;5.43;;;2.25;;
37459;SDS011;23318;50.966;5.284;2023-08-31T15:19:31;5.45;;;1.85;;
37459;SDS011;23318;50.966;5.284;2023-08-31T15:21:57;6.57;;;2.13;;